createdAt,value
2019-05-18T00:00:43.267Z,9.31
2019-05-18T00:01:43.244Z,9.29
2019-05-18T00:02:43.238Z,9.28
2019-05-18T00:03:43.224Z,9.26
2019-05-18T00:04:43.229Z,9.24
2019-05-18T00:05:43.202Z,9.24
2019-05-18T00:06:43.192Z,9.23
2019-05-18T00:07:43.185Z,9.23
2019-05-18T00:08:43.183Z,9.23
2019-05-18T00:09:43.165Z,9.22
2019-05-18T00:10:43.145Z,9.24
2019-05-18T00:11:43.143Z,9.24
2019-05-18T00:12:43.114Z,9.26
2019-05-18T00:13:43.131Z,9.26
2019-05-18T00:14:43.104Z,9.29
2019-05-18T00:15:43.093Z,9.30
2019-05-18T00:16:43.086Z,9.32
2019-05-18T00:17:43.071Z,9.33
2019-05-18T00:18:43.079Z,9.34
2019-05-18T00:19:43.048Z,9.35
2019-05-18T00:20:43.030Z,9.35
2019-05-18T00:21:43.031Z,9.35
2019-05-18T00:22:43.064Z,9.35
2019-05-18T00:23:43.012Z,9.35
2019-05-18T00:24:43.002Z,9.35
2019-05-18T00:25:42.982Z,9.35
2019-05-18T00:26:42.972Z,9.34
2019-05-18T00:27:42.962Z,9.34
2019-05-18T00:28:42.961Z,9.34
2019-05-18T00:29:42.937Z,9.33
2019-05-18T00:30:42.941Z,9.33
2019-05-18T00:31:42.918Z,9.32
2019-05-18T00:32:42.910Z,9.32
2019-05-18T00:33:42.920Z,9.30
2019-05-18T00:34:42.893Z,9.29
2019-05-18T00:35:42.881Z,9.28
2019-05-18T00:36:42.885Z,9.25
2019-05-18T00:37:42.885Z,9.23
2019-05-18T00:38:42.848Z,9.22
2019-05-18T00:39:42.843Z,9.21
2019-05-18T00:40:42.839Z,9.19
2019-05-18T00:41:45.433Z,9.19
2019-05-18T00:42:42.801Z,9.18
2019-05-18T00:43:42.810Z,9.19
2019-05-18T00:44:42.768Z,9.17
2019-05-18T00:45:42.778Z,9.17
2019-05-18T00:46:42.770Z,9.17
2019-05-18T00:47:42.812Z,9.18
2019-05-18T00:48:42.765Z,9.17
2019-05-18T00:49:42.719Z,9.17
2019-05-18T00:50:42.728Z,9.17
2019-05-18T00:51:42.709Z,9.17
2019-05-18T00:52:42.680Z,9.17
2019-05-18T00:53:42.717Z,9.17
2019-05-18T00:54:42.670Z,9.16
2019-05-18T00:55:42.660Z,9.16
2019-05-18T00:56:42.671Z,9.16
2019-05-18T00:57:43.008Z,9.17
2019-05-18T00:58:42.660Z,9.18
2019-05-18T00:59:42.607Z,9.16
2019-05-18T01:00:42.610Z,9.16
2019-05-18T01:01:42.631Z,9.13
2019-05-18T01:02:42.578Z,9.11
2019-05-18T01:03:42.578Z,9.10
2019-05-18T01:04:42.558Z,9.09
2019-05-18T01:05:42.600Z,9.07
2019-05-18T01:06:42.536Z,9.04
2019-05-18T01:07:42.554Z,9.02
2019-05-18T01:08:42.522Z,9.00
2019-05-18T01:09:42.517Z,8.98
2019-05-18T01:10:42.498Z,8.94
2019-05-18T01:11:42.506Z,8.89
2019-05-18T01:12:42.486Z,8.87
2019-05-18T01:13:42.467Z,8.82
2019-05-18T01:14:42.455Z,8.78
2019-05-18T01:15:42.447Z,8.74
2019-05-18T01:16:42.449Z,8.72
2019-05-18T01:17:56.450Z,8.68
2019-05-18T01:18:43.425Z,8.65
2019-05-18T01:19:42.403Z,8.62
2019-05-18T01:20:42.397Z,8.59
2019-05-18T01:21:42.375Z,8.57
2019-05-18T01:22:42.400Z,8.54
2019-05-18T01:23:42.358Z,8.52
2019-05-18T01:24:42.768Z,8.49
2019-05-18T01:25:42.342Z,8.47
2019-05-18T01:26:42.326Z,8.45
2019-05-18T01:27:42.332Z,8.43
2019-05-18T01:28:42.315Z,8.42
2019-05-18T01:29:42.293Z,8.41
2019-05-18T01:30:42.325Z,8.40
2019-05-18T01:31:42.277Z,8.39
2019-05-18T01:32:42.318Z,8.37
2019-05-18T01:33:42.244Z,8.37
2019-05-18T01:34:42.256Z,8.36
2019-05-18T01:35:42.233Z,8.35
2019-05-18T01:36:42.253Z,8.33
2019-05-18T01:37:42.228Z,8.31
2019-05-18T01:38:42.233Z,8.30
2019-05-18T01:39:42.183Z,8.28
2019-05-18T01:40:42.171Z,8.25
2019-05-18T01:41:42.163Z,8.23
2019-05-18T01:42:42.176Z,8.19
2019-05-18T01:43:42.148Z,8.18
2019-05-18T01:44:42.125Z,8.16
2019-05-18T01:45:42.142Z,8.13
2019-05-18T01:46:42.114Z,8.12
2019-05-18T01:47:42.121Z,8.11
2019-05-18T01:48:42.096Z,8.09
2019-05-18T01:49:42.277Z,8.08
2019-05-18T01:50:42.073Z,8.09
2019-05-18T01:51:42.051Z,8.08
2019-05-18T01:52:42.063Z,8.09
2019-05-18T01:53:42.064Z,8.10
2019-05-18T01:54:42.026Z,8.12
2019-05-18T01:55:42.012Z,8.13
2019-05-18T01:56:42.002Z,8.14
2019-05-18T01:57:42.002Z,8.18
2019-05-18T01:58:42.013Z,8.23
2019-05-18T01:59:41.969Z,8.26
2019-05-18T02:00:43.012Z,8.29
2019-05-18T02:01:41.954Z,8.34
2019-05-18T02:02:41.952Z,8.39
2019-05-18T02:03:41.954Z,8.43
2019-05-18T02:04:41.911Z,8.46
2019-05-18T02:05:41.906Z,8.50
2019-05-18T02:06:41.894Z,8.55
2019-05-18T02:07:41.913Z,8.59
2019-05-18T02:08:41.878Z,8.61
2019-05-18T02:09:41.871Z,8.65
2019-05-18T02:10:42.077Z,8.69
2019-05-18T02:11:41.850Z,8.72
2019-05-18T02:12:41.853Z,8.76
2019-05-18T02:13:41.872Z,8.78
2019-05-18T02:14:41.838Z,8.82
2019-05-18T02:15:41.799Z,8.84
2019-05-18T02:16:41.801Z,8.87
2019-05-18T02:17:41.804Z,8.88
2019-05-18T02:18:41.766Z,8.91
2019-05-18T02:19:41.770Z,8.92
2019-05-18T02:20:41.745Z,8.93
2019-05-18T02:21:41.726Z,8.93
2019-05-18T02:22:41.744Z,8.93
2019-05-18T02:23:41.731Z,8.93
2019-05-18T02:24:41.709Z,8.93
2019-05-18T02:25:41.695Z,8.91
2019-05-18T02:26:41.683Z,8.91
2019-05-18T02:27:41.687Z,8.88
2019-05-18T02:28:41.653Z,8.84
2019-05-18T02:29:41.680Z,8.82
2019-05-18T02:30:41.641Z,8.80
2019-05-18T02:31:41.661Z,8.79
2019-05-18T02:32:41.632Z,8.76
2019-05-18T02:33:41.600Z,8.74
2019-05-18T02:34:41.617Z,8.70
2019-05-18T02:35:41.599Z,8.68
2019-05-18T02:36:41.600Z,8.65
2019-05-18T02:37:41.603Z,8.63
2019-05-18T02:38:41.559Z,8.61
2019-05-18T02:39:41.551Z,8.60
2019-05-18T02:40:41.529Z,8.59
2019-05-18T02:41:41.570Z,8.56
2019-05-18T02:42:41.526Z,8.54
2019-05-18T02:43:41.511Z,8.53
2019-05-18T02:44:41.540Z,8.52
2019-05-18T02:45:41.478Z,8.49
2019-05-18T02:46:41.473Z,8.48
2019-05-18T02:47:41.479Z,8.45
2019-05-18T02:48:49.600Z,8.44
2019-05-18T02:49:42.440Z,8.41
2019-05-18T02:50:41.425Z,8.38
2019-05-18T02:51:41.477Z,8.37
2019-05-18T02:52:41.439Z,8.34
2019-05-18T02:53:41.390Z,8.33
2019-05-18T02:54:41.390Z,8.31
2019-05-18T02:55:41.363Z,8.29
2019-05-18T02:56:41.359Z,8.26
2019-05-18T02:57:41.351Z,8.25
2019-05-18T02:58:41.372Z,8.24
2019-05-18T02:59:41.329Z,8.23
2019-05-18T03:00:41.317Z,8.22
2019-05-18T03:01:41.343Z,8.20
2019-05-18T03:02:41.288Z,8.19
2019-05-18T03:03:41.307Z,8.18
2019-05-18T03:04:41.273Z,8.17
2019-05-18T03:05:41.264Z,8.17
2019-05-18T03:06:41.274Z,8.17
2019-05-18T03:07:41.891Z,8.16
2019-05-18T03:08:41.229Z,8.16
2019-05-18T03:09:41.237Z,8.15
2019-05-18T03:10:41.195Z,8.15
2019-05-18T03:11:41.227Z,8.15
2019-05-18T03:12:41.434Z,8.13
2019-05-18T03:13:41.417Z,8.12
2019-05-18T03:14:41.166Z,8.11
2019-05-18T03:15:41.155Z,8.10
2019-05-18T03:16:41.669Z,8.10
2019-05-18T03:17:41.376Z,8.09
2019-05-18T03:18:41.117Z,8.09
2019-05-18T03:19:41.120Z,8.09
2019-05-18T03:20:41.112Z,8.08
2019-05-18T03:21:41.501Z,8.07
2019-05-18T03:22:41.148Z,8.07
2019-05-18T03:23:41.628Z,8.08
2019-05-18T03:24:41.306Z,8.09
2019-05-18T03:25:41.040Z,8.08
2019-05-18T03:26:41.627Z,8.10
2019-05-18T03:27:41.919Z,8.09
2019-05-18T03:28:41.836Z,8.10
2019-05-18T03:29:41.185Z,8.11
2019-05-18T03:30:41.103Z,8.12
2019-05-18T03:31:41.121Z,8.12
2019-05-18T03:32:41.152Z,8.13
2019-05-18T03:33:41.006Z,8.14
2019-05-18T03:34:41.074Z,8.14
2019-05-18T03:35:41.043Z,8.14
2019-05-18T03:36:40.928Z,8.15
2019-05-18T03:37:40.903Z,8.16
2019-05-18T03:38:41.160Z,8.17
2019-05-18T03:39:40.997Z,8.19
2019-05-18T03:40:41.082Z,8.20
2019-05-18T03:41:40.950Z,8.24
2019-05-18T03:42:40.942Z,8.27
2019-05-18T03:43:41.037Z,8.29
2019-05-18T03:44:40.835Z,8.32
2019-05-18T03:45:40.873Z,8.36
2019-05-18T03:46:40.920Z,8.38
2019-05-18T03:47:40.822Z,8.40
2019-05-18T03:48:40.947Z,8.43
2019-05-18T03:49:40.950Z,8.44
2019-05-18T03:50:41.083Z,8.46
2019-05-18T03:51:40.804Z,8.48
2019-05-18T03:52:41.463Z,8.50
2019-05-18T03:53:40.780Z,8.52
2019-05-18T03:54:40.735Z,8.54
2019-05-18T03:55:45.540Z,8.55
2019-05-18T03:56:40.770Z,8.57
2019-05-18T03:57:40.752Z,8.59
2019-05-18T03:58:40.733Z,8.61
2019-05-18T03:59:40.705Z,8.62
2019-05-18T04:00:40.665Z,8.65
2019-05-18T04:01:40.682Z,8.68
2019-05-18T04:02:40.645Z,8.70
2019-05-18T04:03:40.642Z,8.73
2019-05-18T04:04:41.375Z,8.75
2019-05-18T04:05:40.641Z,8.78
2019-05-18T04:06:40.667Z,8.81
2019-05-18T04:07:40.594Z,8.83
2019-05-18T04:08:40.578Z,8.87
2019-05-18T04:09:40.567Z,8.92
2019-05-18T04:10:41.238Z,8.94
2019-05-18T04:11:41.277Z,8.97
2019-05-18T04:12:40.600Z,9.01
2019-05-18T04:13:40.533Z,9.03
2019-05-18T04:14:40.560Z,9.07
2019-05-18T04:15:42.002Z,9.11
2019-05-18T04:16:40.504Z,9.16
2019-05-18T04:17:40.480Z,9.22
2019-05-18T04:18:40.509Z,9.29
2019-05-18T04:19:46.084Z,9.34
2019-05-18T04:20:41.796Z,9.40
2019-05-18T04:21:40.440Z,9.47
2019-05-18T04:22:40.435Z,9.52
2019-05-18T04:23:40.458Z,9.58
2019-05-18T04:24:41.429Z,9.65
2019-05-18T04:25:43.733Z,9.70
2019-05-18T04:26:40.427Z,9.75
2019-05-18T04:27:40.401Z,9.79
2019-05-18T04:28:40.388Z,9.81
2019-05-18T04:29:40.413Z,9.83
2019-05-18T04:30:40.351Z,9.86
2019-05-18T04:31:41.454Z,9.88
2019-05-18T04:32:40.328Z,9.89
2019-05-18T04:33:40.659Z,9.92
2019-05-18T04:34:41.473Z,9.96
2019-05-18T04:35:40.722Z,10.00
2019-05-18T04:36:40.455Z,10.03
2019-05-18T04:37:40.440Z,10.08
2019-05-18T04:38:40.365Z,10.13
2019-05-18T04:39:40.385Z,10.21
2019-05-18T04:40:40.359Z,10.27
2019-05-18T04:41:40.427Z,10.33
2019-05-18T04:42:40.343Z,10.41
2019-05-18T04:43:40.305Z,10.48
2019-05-18T04:44:40.265Z,10.55
2019-05-18T04:45:40.337Z,10.62
2019-05-18T04:46:40.339Z,10.68
2019-05-18T04:47:40.200Z,10.75
2019-05-18T04:48:40.630Z,10.81
2019-05-18T04:49:40.490Z,10.88
2019-05-18T04:50:40.137Z,10.95
2019-05-18T04:51:40.129Z,11.01
2019-05-18T04:52:40.537Z,11.09
2019-05-18T04:53:40.202Z,11.18
2019-05-18T04:54:40.178Z,11.27
2019-05-18T04:55:40.206Z,11.35
2019-05-18T04:56:42.882Z,11.46
2019-05-18T04:57:40.063Z,11.57
2019-05-18T04:58:40.058Z,11.71
2019-05-18T04:59:40.067Z,11.85
2019-05-18T05:00:40.036Z,11.98
2019-05-18T05:01:40.929Z,12.12
2019-05-18T05:02:40.015Z,12.24
2019-05-18T05:03:39.988Z,12.37
2019-05-18T05:04:40.084Z,12.49
2019-05-18T05:05:40.088Z,12.64
2019-05-18T05:06:40.026Z,12.79
2019-05-18T05:07:40.063Z,12.92
2019-05-18T05:08:40.241Z,13.09
2019-05-18T05:09:39.956Z,13.25
2019-05-18T05:10:39.968Z,13.40
2019-05-18T05:11:39.914Z,13.58
2019-05-18T05:12:39.882Z,13.75
2019-05-18T05:13:39.875Z,13.95
2019-05-18T05:14:39.876Z,14.12
2019-05-18T05:15:39.959Z,14.32
2019-05-18T05:16:39.874Z,14.53
2019-05-18T05:17:39.874Z,14.72
2019-05-18T05:18:40.074Z,14.91
2019-05-18T05:19:39.830Z,15.08
2019-05-18T05:20:39.854Z,15.24
2019-05-18T05:21:40.646Z,15.35
2019-05-18T05:22:39.854Z,15.44
2019-05-18T05:23:39.773Z,15.48
2019-05-18T05:24:39.776Z,15.50
2019-05-18T05:25:40.273Z,15.53
2019-05-18T05:26:39.986Z,15.53
2019-05-18T05:27:39.963Z,15.54
2019-05-18T05:28:40.565Z,15.55
2019-05-18T05:29:39.980Z,15.55
2019-05-18T05:30:39.837Z,15.59
2019-05-18T05:31:39.713Z,15.62
2019-05-18T05:32:41.907Z,15.65
2019-05-18T05:33:39.921Z,15.70
2019-05-18T05:34:39.801Z,15.79
2019-05-18T05:35:39.793Z,15.86
2019-05-18T05:36:39.647Z,15.93
2019-05-18T05:37:40.170Z,15.96
2019-05-18T05:38:39.850Z,16.00
2019-05-18T05:39:39.803Z,16.00
2019-05-18T05:40:39.625Z,16.00
2019-05-18T05:41:39.586Z,16.01
2019-05-18T05:42:39.679Z,16.06
2019-05-18T05:43:39.571Z,16.19
2019-05-18T05:44:40.229Z,16.34
2019-05-18T05:45:40.579Z,16.51
2019-05-18T05:46:40.599Z,16.66
2019-05-18T05:47:39.542Z,16.82
2019-05-18T05:48:39.533Z,16.97
2019-05-18T05:49:39.787Z,17.09
2019-05-18T05:50:39.486Z,17.22
2019-05-18T05:51:39.573Z,17.34
2019-05-18T05:52:39.587Z,17.44
2019-05-18T05:53:39.454Z,17.51
2019-05-18T05:54:39.454Z,17.55
2019-05-18T05:55:39.524Z,17.58
2019-05-18T05:56:39.514Z,17.60
2019-05-18T05:57:39.677Z,17.60
2019-05-18T05:58:39.823Z,17.61
2019-05-18T05:59:39.510Z,17.64
2019-05-18T06:00:39.394Z,17.65
2019-05-18T06:01:39.372Z,17.65
2019-05-18T06:02:39.342Z,17.65
2019-05-18T06:03:39.341Z,17.66
2019-05-18T06:04:39.372Z,17.64
2019-05-18T06:05:39.382Z,17.61
2019-05-18T06:06:39.330Z,17.59
2019-05-18T06:07:39.339Z,17.55
2019-05-18T06:08:39.290Z,17.48
2019-05-18T06:09:39.271Z,17.41
2019-05-18T06:10:39.318Z,17.35
2019-05-18T06:11:39.278Z,17.28
2019-05-18T06:12:39.252Z,17.27
2019-05-18T06:13:39.248Z,17.32
2019-05-18T06:14:39.231Z,17.39
2019-05-18T06:15:39.239Z,17.48
2019-05-18T06:16:39.202Z,17.57
2019-05-18T06:17:39.203Z,17.68
2019-05-18T06:18:39.186Z,17.82
2019-05-18T06:19:39.169Z,18.00
2019-05-18T06:20:51.074Z,18.18
2019-05-18T06:21:40.180Z,18.40
2019-05-18T06:22:39.141Z,18.61
2019-05-18T06:23:39.133Z,18.79
2019-05-18T06:24:39.119Z,18.95
2019-05-18T06:25:39.146Z,19.09
2019-05-18T06:26:39.088Z,19.31
2019-05-18T06:27:39.110Z,19.51
2019-05-18T06:28:39.080Z,19.74
2019-05-18T06:29:39.066Z,19.98
2019-05-18T06:30:39.052Z,20.21
2019-05-18T06:31:39.061Z,20.44
2019-05-18T06:32:39.061Z,20.63
2019-05-18T06:33:39.020Z,20.78
2019-05-18T06:34:39.376Z,20.84
2019-05-18T06:35:44.121Z,20.82
2019-05-18T06:36:40.551Z,20.74
2019-05-18T06:37:38.971Z,20.68
2019-05-18T06:38:39.011Z,20.66
2019-05-18T06:39:38.986Z,20.66
2019-05-18T06:40:38.959Z,20.64
2019-05-18T06:41:38.954Z,20.60
2019-05-18T06:42:38.949Z,20.54
2019-05-18T06:43:38.938Z,20.51
2019-05-18T06:44:38.921Z,20.41
2019-05-18T06:45:38.879Z,20.37
2019-05-18T06:46:38.882Z,20.40
2019-05-18T06:47:38.871Z,20.43
2019-05-18T06:48:38.863Z,20.49
2019-05-18T06:49:38.866Z,20.59
2019-05-18T06:50:38.850Z,20.72
2019-05-18T06:51:38.929Z,20.88
2019-05-18T06:52:38.863Z,21.09
2019-05-18T06:53:38.835Z,21.30
2019-05-18T06:54:38.801Z,21.50
2019-05-18T06:55:38.771Z,21.73
2019-05-18T06:56:38.834Z,21.97
2019-05-18T06:57:38.768Z,22.23
2019-05-18T06:58:38.760Z,22.49
2019-05-18T06:59:38.738Z,22.74
2019-05-18T07:00:38.759Z,22.98
2019-05-18T07:01:38.717Z,23.20
2019-05-18T07:02:38.696Z,23.37
2019-05-18T07:03:38.718Z,23.54
2019-05-18T07:04:38.681Z,23.65
2019-05-18T07:05:38.688Z,23.81
2019-05-18T07:06:38.668Z,23.93
2019-05-18T07:07:38.707Z,24.06
2019-05-18T07:08:38.646Z,24.20
2019-05-18T07:09:38.647Z,24.36
2019-05-18T07:10:38.639Z,24.50
2019-05-18T07:11:38.648Z,24.65
2019-05-18T07:12:38.615Z,24.80
2019-05-18T07:13:38.667Z,24.93
2019-05-18T07:14:38.615Z,25.06
2019-05-18T07:15:38.567Z,25.20
2019-05-18T07:16:38.581Z,25.34
2019-05-18T07:17:38.560Z,25.47
2019-05-18T07:18:38.521Z,25.61
2019-05-18T07:19:38.538Z,25.75
2019-05-18T07:20:38.519Z,25.89
2019-05-18T07:21:38.509Z,26.00
2019-05-18T07:22:38.490Z,26.12
2019-05-18T07:23:38.480Z,26.25
2019-05-18T07:24:38.484Z,26.38
2019-05-18T07:25:38.448Z,26.50
2019-05-18T07:26:38.451Z,26.66
2019-05-18T07:27:38.473Z,26.82
2019-05-18T07:28:38.480Z,26.99
2019-05-18T07:29:38.449Z,27.18
2019-05-18T07:30:38.411Z,27.36
2019-05-18T07:31:38.402Z,27.57
2019-05-18T07:32:38.388Z,27.79
2019-05-18T07:33:38.393Z,28.01
2019-05-18T07:34:38.359Z,28.18
2019-05-18T07:35:38.371Z,28.29
2019-05-18T07:36:38.333Z,28.39
2019-05-18T07:37:38.335Z,28.48
2019-05-18T07:38:38.337Z,28.58
2019-05-18T07:39:38.299Z,28.69
2019-05-18T07:40:38.290Z,28.77
2019-05-18T07:41:46.230Z,28.85
2019-05-18T07:42:39.261Z,28.90
2019-05-18T07:43:38.287Z,28.95
2019-05-18T07:44:38.251Z,28.97
2019-05-18T07:45:38.244Z,28.97
2019-05-18T07:46:38.229Z,29.00
2019-05-18T07:47:38.212Z,29.00
2019-05-18T07:48:38.234Z,28.90
2019-05-18T07:49:38.195Z,28.85
2019-05-18T07:50:38.203Z,28.82
2019-05-18T07:51:38.173Z,28.74
2019-05-18T07:52:38.163Z,28.61
2019-05-18T07:53:38.180Z,28.50
2019-05-18T07:54:38.133Z,28.39
2019-05-18T07:55:38.152Z,28.26
2019-05-18T07:56:38.153Z,28.12
2019-05-18T07:57:38.102Z,27.97
2019-05-18T07:58:38.110Z,27.84
2019-05-18T07:59:38.120Z,27.74
2019-05-18T08:00:38.090Z,27.69
2019-05-18T08:01:38.076Z,27.64
2019-05-18T08:02:38.151Z,27.64
2019-05-18T08:03:38.136Z,27.71
2019-05-18T08:04:39.798Z,27.77
2019-05-18T08:05:38.023Z,27.85
2019-05-18T08:06:38.015Z,27.93
2019-05-18T08:07:38.002Z,28.02
2019-05-18T08:08:38.011Z,28.13
2019-05-18T08:09:38.003Z,28.25
2019-05-18T08:10:38.023Z,28.47
2019-05-18T08:11:37.963Z,28.79
2019-05-18T08:12:37.954Z,29.29
2019-05-18T08:13:37.985Z,29.78
2019-05-18T08:14:37.920Z,30.32
2019-05-18T08:15:37.946Z,30.98
2019-05-18T08:16:37.967Z,31.91
2019-05-18T08:17:37.896Z,32.98
2019-05-18T08:18:37.883Z,34.19
2019-05-18T08:19:37.884Z,34.60
2019-05-18T08:20:37.869Z,34.25
2019-05-18T08:21:52.227Z,34.35
2019-05-18T08:22:38.866Z,34.06
2019-05-18T08:23:37.826Z,33.96
2019-05-18T08:24:37.842Z,34.04
2019-05-18T08:25:37.880Z,34.40
2019-05-18T08:26:37.832Z,34.30
2019-05-18T08:27:37.791Z,34.26
2019-05-18T08:28:37.801Z,34.65
2019-05-18T08:29:37.776Z,34.50
2019-05-18T08:30:37.768Z,34.39
2019-05-18T08:31:37.796Z,34.33
2019-05-18T08:32:37.764Z,34.20
2019-05-18T08:33:37.736Z,34.11
2019-05-18T08:34:37.743Z,34.44
2019-05-18T08:35:37.704Z,34.16
2019-05-18T08:36:37.693Z,34.09
2019-05-18T08:37:37.718Z,33.74
2019-05-18T08:38:38.462Z,33.28
2019-05-18T08:39:37.674Z,32.91
2019-05-18T08:40:37.648Z,32.65
2019-05-18T08:41:37.644Z,32.52
2019-05-18T08:42:37.696Z,32.51
2019-05-18T08:43:37.618Z,32.64
2019-05-18T08:44:37.655Z,32.95
2019-05-18T08:45:37.629Z,34.14
2019-05-18T08:46:37.576Z,34.88
2019-05-18T08:47:37.602Z,34.84
2019-05-18T08:48:37.582Z,35.06
2019-05-18T08:49:37.565Z,34.43
2019-05-18T08:50:37.583Z,33.92
2019-05-18T08:51:37.555Z,33.49
2019-05-18T08:52:37.546Z,33.22
2019-05-18T08:53:37.516Z,33.09
2019-05-18T08:54:37.525Z,33.12
2019-05-18T08:55:38.944Z,33.04
2019-05-18T08:56:37.496Z,32.96
2019-05-18T08:57:37.477Z,33.03
2019-05-18T08:58:37.460Z,33.41
2019-05-18T08:59:39.918Z,34.98
2019-05-18T09:00:37.442Z,36.12
2019-05-18T09:01:37.448Z,36.91
2019-05-18T09:02:37.440Z,38.48
2019-05-18T09:03:37.397Z,40.04
2019-05-18T09:04:37.399Z,41.60
2019-05-18T09:05:37.409Z,42.21
2019-05-18T09:06:37.427Z,43.98
2019-05-18T09:07:37.395Z,45.48
2019-05-18T09:08:37.357Z,46.96
2019-05-18T09:09:37.336Z,48.33
2019-05-18T09:10:37.331Z,49.46
2019-05-18T09:11:37.337Z,50.41
2019-05-18T09:12:37.693Z,51.29
2019-05-18T09:13:38.040Z,52.04
2019-05-18T09:14:38.733Z,52.45
2019-05-18T09:15:40.021Z,52.73
2019-05-18T09:16:37.308Z,53.03
2019-05-18T09:17:37.631Z,53.45
2019-05-18T09:18:37.242Z,54.00
2019-05-18T09:19:37.293Z,54.50
2019-05-18T09:20:37.299Z,54.95
2019-05-18T09:21:37.254Z,55.39
2019-05-18T09:22:37.312Z,55.83
2019-05-18T09:23:37.198Z,56.23
2019-05-18T09:24:37.189Z,56.43
2019-05-18T09:25:37.200Z,56.53
2019-05-18T09:26:37.202Z,56.68
2019-05-18T09:27:37.157Z,56.96
2019-05-18T09:28:37.157Z,57.21
2019-05-18T09:29:37.174Z,57.24
2019-05-18T09:30:37.134Z,57.15
2019-05-18T09:31:37.128Z,57.18
2019-05-18T09:32:37.132Z,57.00
2019-05-18T09:33:37.105Z,54.76
2019-05-18T09:34:37.095Z,52.06
2019-05-18T09:35:37.082Z,50.94
2019-05-18T09:36:37.103Z,50.40
2019-05-18T09:37:37.086Z,51.78
2019-05-18T09:38:37.077Z,53.72
2019-05-18T09:39:37.052Z,54.10
2019-05-18T09:40:37.032Z,55.13
2019-05-18T09:41:37.077Z,56.18
2019-05-18T09:42:37.033Z,56.14
2019-05-18T09:43:37.046Z,55.82
2019-05-18T09:44:36.988Z,55.46
2019-05-18T09:45:36.983Z,55.56
2019-05-18T09:46:36.983Z,55.85
2019-05-18T09:47:36.971Z,56.34
2019-05-18T09:48:36.973Z,56.77
2019-05-18T09:49:36.953Z,57.34
2019-05-18T09:50:36.934Z,57.91
2019-05-18T09:51:36.932Z,58.31
2019-05-18T09:52:45.084Z,58.48
2019-05-18T09:53:50.663Z,58.76
2019-05-18T09:54:37.889Z,58.94
2019-05-18T09:55:36.879Z,53.73
2019-05-18T09:56:36.882Z,49.77
2019-05-18T09:57:36.995Z,47.00
2019-05-18T09:58:36.857Z,48.08
2019-05-18T09:59:36.864Z,48.91
2019-05-18T10:00:39.104Z,47.06
2019-05-18T10:01:36.846Z,47.93
2019-05-18T10:02:36.815Z,45.84
2019-05-18T10:03:36.888Z,48.21
2019-05-18T10:04:36.814Z,50.91
2019-05-18T10:05:36.805Z,52.47
2019-05-18T10:06:36.772Z,53.72
2019-05-18T10:07:36.776Z,54.62
2019-05-18T10:08:36.793Z,54.73
2019-05-18T10:09:39.193Z,53.68
2019-05-18T10:10:36.757Z,52.35
2019-05-18T10:11:38.654Z,49.53
2019-05-18T10:12:36.734Z,46.94
2019-05-18T10:13:36.728Z,45.15
2019-05-18T10:14:36.732Z,44.11
2019-05-18T10:15:36.684Z,43.03
2019-05-18T10:16:36.674Z,41.64
2019-05-18T10:17:36.655Z,40.44
2019-05-18T10:18:36.675Z,39.45
2019-05-18T10:19:36.655Z,38.84
2019-05-18T10:20:36.645Z,38.71
2019-05-18T10:21:36.635Z,38.48
2019-05-18T10:22:36.616Z,38.06
2019-05-18T10:23:36.617Z,37.46
2019-05-18T10:24:36.578Z,37.07
2019-05-18T10:25:36.575Z,36.68
2019-05-18T10:26:36.608Z,36.24
2019-05-18T10:27:36.568Z,35.89
2019-05-18T10:28:36.547Z,35.60
2019-05-18T10:29:36.627Z,35.35
2019-05-18T10:30:36.606Z,35.14
2019-05-18T10:31:36.523Z,34.95
2019-05-18T10:32:36.539Z,34.80
2019-05-18T10:33:36.528Z,34.66
2019-05-18T10:34:36.480Z,34.57
2019-05-18T10:35:36.498Z,34.56
2019-05-18T10:36:36.491Z,34.65
2019-05-18T10:37:36.449Z,34.78
2019-05-18T10:38:36.540Z,34.90
2019-05-18T10:39:38.748Z,35.03
2019-05-18T10:40:36.424Z,35.22
2019-05-18T10:41:36.431Z,35.50
2019-05-18T10:42:36.405Z,35.87
2019-05-18T10:43:36.407Z,36.06
2019-05-18T10:44:36.390Z,36.31
2019-05-18T10:45:36.386Z,36.63
2019-05-18T10:46:36.429Z,37.15
2019-05-18T10:47:36.349Z,39.01
2019-05-18T10:48:37.161Z,41.42
2019-05-18T10:49:36.330Z,44.99
2019-05-18T10:50:36.331Z,47.85
2019-05-18T10:51:36.329Z,44.33
2019-05-18T10:52:36.308Z,41.93
2019-05-18T10:53:36.288Z,40.72
2019-05-18T10:54:36.462Z,45.75
2019-05-18T10:55:36.260Z,46.06
2019-05-18T10:56:36.260Z,43.84
2019-05-18T10:57:36.276Z,43.42
2019-05-18T10:58:36.255Z,46.94
2019-05-18T10:59:36.224Z,45.14
2019-05-18T11:00:36.212Z,49.72
2019-05-18T11:01:36.210Z,53.25
2019-05-18T11:02:36.259Z,55.57
2019-05-18T11:03:36.183Z,53.85
2019-05-18T11:04:36.236Z,49.38
2019-05-18T11:05:36.192Z,46.36
2019-05-18T11:06:36.157Z,44.55
2019-05-18T11:07:36.493Z,43.34
2019-05-18T11:08:38.428Z,43.09
2019-05-18T11:09:36.111Z,48.37
2019-05-18T11:10:36.192Z,52.55
2019-05-18T11:11:36.101Z,55.78
2019-05-18T11:12:36.088Z,58.02
2019-05-18T11:13:36.135Z,59.62
2019-05-18T11:14:36.090Z,60.85
2019-05-18T11:15:36.062Z,61.71
2019-05-18T11:16:36.060Z,62.24
2019-05-18T11:17:36.047Z,62.85
2019-05-18T11:18:36.061Z,63.36
2019-05-18T11:19:36.022Z,63.78
2019-05-18T11:20:36.045Z,63.94
2019-05-18T11:21:36.006Z,63.30
2019-05-18T11:22:35.991Z,62.21
2019-05-18T11:23:43.713Z,61.61
2019-05-18T11:24:36.988Z,62.51
2019-05-18T11:25:35.997Z,63.35
2019-05-18T11:26:35.974Z,63.97
2019-05-18T11:27:35.952Z,64.30
2019-05-18T11:28:35.945Z,64.63
2019-05-18T11:29:35.930Z,64.96
2019-05-18T11:30:35.945Z,65.41
2019-05-18T11:31:35.895Z,65.93
2019-05-18T11:32:35.897Z,66.32
2019-05-18T11:33:35.916Z,66.69
2019-05-18T11:34:35.890Z,67.03
2019-05-18T11:35:35.907Z,67.33
2019-05-18T11:36:35.872Z,67.52
2019-05-18T11:37:35.846Z,67.82
2019-05-18T11:38:35.847Z,68.38
2019-05-18T11:39:35.926Z,64.66
2019-05-18T11:40:35.905Z,59.12
2019-05-18T11:41:35.812Z,55.61
2019-05-18T11:42:35.817Z,53.08
2019-05-18T11:43:35.799Z,51.15
2019-05-18T11:44:35.796Z,50.36
2019-05-18T11:45:35.773Z,55.44
2019-05-18T11:46:35.835Z,57.14
2019-05-18T11:47:35.767Z,58.94
2019-05-18T11:48:35.736Z,59.93
2019-05-18T11:49:35.746Z,55.43
2019-05-18T11:50:35.717Z,58.25
2019-05-18T11:51:35.746Z,61.13
2019-05-18T11:52:36.547Z,62.74
2019-05-18T11:53:36.351Z,64.06
2019-05-18T11:54:35.688Z,64.33
2019-05-18T11:55:35.679Z,59.22
2019-05-18T11:56:35.680Z,59.97
2019-05-18T11:57:35.677Z,56.66
2019-05-18T11:58:35.660Z,53.13
2019-05-18T11:59:35.647Z,50.57
2019-05-18T12:00:35.658Z,48.59
2019-05-18T12:01:35.618Z,47.26
2019-05-18T12:02:35.625Z,47.97
2019-05-18T12:03:35.599Z,49.93
2019-05-18T12:04:35.621Z,53.59
2019-05-18T12:05:35.598Z,57.38
2019-05-18T12:06:35.580Z,59.96
2019-05-18T12:07:35.577Z,60.95
2019-05-18T12:08:35.554Z,62.31
2019-05-18T12:09:35.583Z,63.80
2019-05-18T12:10:35.560Z,65.04
2019-05-18T12:11:35.549Z,66.07
2019-05-18T12:12:35.528Z,66.47
2019-05-18T12:13:35.509Z,65.04
2019-05-18T12:14:35.513Z,66.24
2019-05-18T12:15:35.532Z,67.13
2019-05-18T12:16:35.507Z,67.79
2019-05-18T12:17:35.488Z,68.30
2019-05-18T12:18:35.461Z,68.66
2019-05-18T12:19:35.450Z,67.28
2019-05-18T12:20:35.504Z,63.77
2019-05-18T12:21:35.420Z,58.45
2019-05-18T12:22:35.452Z,54.64
2019-05-18T12:23:35.521Z,51.76
2019-05-18T12:24:35.510Z,49.74
2019-05-18T12:25:35.390Z,48.51
2019-05-18T12:26:35.387Z,47.69
2019-05-18T12:27:35.382Z,47.87
2019-05-18T12:28:35.359Z,50.58
2019-05-18T12:29:35.367Z,54.59
2019-05-18T12:30:35.348Z,55.46
2019-05-18T12:31:35.363Z,51.09
2019-05-18T12:32:35.360Z,48.25
2019-05-18T12:33:35.302Z,46.17
2019-05-18T12:34:35.304Z,44.65
2019-05-18T12:35:35.282Z,43.58
2019-05-18T12:36:35.342Z,42.92
2019-05-18T12:37:35.381Z,42.22
2019-05-18T12:38:35.268Z,41.50
2019-05-18T12:39:35.262Z,40.88
2019-05-18T12:40:35.232Z,40.26
2019-05-18T12:41:35.236Z,39.53
2019-05-18T12:42:35.238Z,38.76
2019-05-18T12:43:35.218Z,38.09
2019-05-18T12:44:35.222Z,37.56
2019-05-18T12:45:35.202Z,37.24
2019-05-18T12:46:35.190Z,37.05
2019-05-18T12:47:35.166Z,36.90
2019-05-18T12:48:35.166Z,36.72
2019-05-18T12:49:35.146Z,36.59
2019-05-18T12:50:35.154Z,39.47
2019-05-18T12:51:35.135Z,42.81
2019-05-18T12:52:35.114Z,43.67
2019-05-18T12:53:35.125Z,47.74
2019-05-18T12:54:46.015Z,50.44
2019-05-18T12:55:36.108Z,52.74
2019-05-18T12:56:35.131Z,54.56
2019-05-18T12:57:35.089Z,56.13
2019-05-18T12:58:37.584Z,57.34
2019-05-18T12:59:35.037Z,58.35
2019-05-18T13:00:35.507Z,59.29
2019-05-18T13:01:35.197Z,60.47